sensor_id;sensor_type;location;lat;lon;timestamp;P1;durP1;ratioP1;P2;durP2;ratioP2
28166;SDS011;15455;53.376;-6.262;2023-07-13T00:02:29;5.93;;;1.45;;
28166;SDS011;15455;53.376;-6.262;2023-07-13T00:05:15;6.15;;;1.25;;
28166;SDS011;15455;53.376;-6.262;2023-07-13T00:08:01;5.60;;;1.73;;
28166;SDS011;15455;53.376;-6.262;2023-07-13T00:10:46;2.70;;;0.95;;
28166;SDS011;15455;53.376;-6.262;2023-07-13T00:13:31;3.65;;;1.42;;
28166;SDS011;15455;53.376;-6.262;2023-07-13T00:16:17;6.63;;;1.80;;
28166;SDS011;15455;53.376;-6.262;2023-07-13T00:19:04;6.38;;;1.17;;
28166;SDS011;15455;53.376;-6.262;2023-07-13T00:21:50;5.22;;;1.48;;
28166;SDS011;15455;53.376;-6.262;2023-07-13T00:24:35;5.68;;;1.80;;
28166;SDS011;15455;53.376;-6.262;2023-07-13T00:27:26;4.70;;;1.30;;
28166;SDS011;15455;53.376;-6.262;2023-07-13T00:30:12;8.45;;;1.80;;
28166;SDS011;15455;53.376;-6.262;2023-07-13T00:32:58;5.65;;;1.20;;
28166;SDS011;15455;53.376;-6.262;2023-07-13T00:36:02;7.72;;;1.20;;
28166;SDS011;15455;53.376;-6.262;2023-07-13T00:38:48;6.30;;;1.40;;
28166;SDS011;15455;53.376;-6.262;2023-07-13T00:41:34;2.47;;;1.35;;
28166;SDS011;15455;53.376;-6.262;2023-07-13T00:44:21;6.40;;;1.33;;
28166;SDS011;15455;53.376;-6.262;2023-07-13T00:47:08;5.75;;;1.90;;
28166;SDS011;15455;53.376;-6.262;2023-07-13T00:49:54;4.22;;;1.33;;
28166;SDS011;15455;53.376;-6.262;2023-07-13T00:52:40;2.10;;;1.30;;
28166;SDS011;15455;53.376;-6.262;2023-07-13T00:55:29;4.88;;;1.45;;
28166;SDS011;15455;53.376;-6.262;2023-07-13T00:58:15;4.57;;;1.50;;
28166;SDS011;15455;53.376;-6.262;2023-07-13T01:01:01;6.57;;;1.73;;
28166;SDS011;15455;53.376;-6.262;2023-07-13T01:03:47;4.15;;;1.50;;
28166;SDS011;15455;53.376;-6.262;2023-07-13T01:06:32;5.03;;;1.65;;
28166;SDS011;15455;53.376;-6.262;2023-07-13T01:09:18;10.25;;;1.80;;
28166;SDS011;15455;53.376;-6.262;2023-07-13T01:12:05;4.88;;;1.52;;
28166;SDS011;15455;53.376;-6.262;2023-07-13T01:14:56;5.63;;;1.70;;
28166;SDS011;15455;53.376;-6.262;2023-07-13T01:17:46;6.32;;;1.48;;
28166;SDS011;15455;53.376;-6.262;2023-07-13T01:20:31;8.05;;;1.80;;
28166;SDS011;15455;53.376;-6.262;2023-07-13T01:23:23;5.78;;;1.60;;
28166;SDS011;15455;53.376;-6.262;2023-07-13T01:26:09;9.20;;;2.03;;
28166;SDS011;15455;53.376;-6.262;2023-07-13T01:28:56;5.68;;;1.60;;
28166;SDS011;15455;53.376;-6.262;2023-07-13T01:31:41;5.55;;;1.23;;
28166;SDS011;15455;53.376;-6.262;2023-07-13T01:34:29;7.13;;;1.33;;
28166;SDS011;15455;53.376;-6.262;2023-07-13T01:37:14;7.13;;;2.03;;
28166;SDS011;15455;53.376;-6.262;2023-07-13T01:39:59;7.40;;;1.45;;
28166;SDS011;15455;53.376;-6.262;2023-07-13T01:42:48;6.00;;;1.40;;
28166;SDS011;15455;53.376;-6.262;2023-07-13T01:45:38;7.20;;;2.00;;
28166;SDS011;15455;53.376;-6.262;2023-07-13T01:48:24;7.13;;;1.83;;
28166;SDS011;15455;53.376;-6.262;2023-07-13T01:51:09;5.90;;;1.75;;
28166;SDS011;15455;53.376;-6.262;2023-07-13T01:53:56;5.15;;;1.40;;
28166;SDS011;15455;53.376;-6.262;2023-07-13T01:56:41;6.53;;;1.95;;
28166;SDS011;15455;53.376;-6.262;2023-07-13T01:59:27;5.50;;;1.50;;
28166;SDS011;15455;53.376;-6.262;2023-07-13T02:02:12;5.20;;;1.73;;
28166;SDS011;15455;53.376;-6.262;2023-07-13T02:04:58;4.00;;;2.03;;
28166;SDS011;15455;53.376;-6.262;2023-07-13T02:07:44;9.50;;;1.63;;
28166;SDS011;15455;53.376;-6.262;2023-07-13T02:10:29;11.98;;;2.13;;
28166;SDS011;15455;53.376;-6.262;2023-07-13T02:13:14;5.95;;;1.65;;
28166;SDS011;15455;53.376;-6.262;2023-07-13T02:16:00;5.40;;;1.80;;
28166;SDS011;15455;53.376;-6.262;2023-07-13T02:18:46;6.00;;;1.63;;
28166;SDS011;15455;53.376;-6.262;2023-07-13T02:21:31;4.13;;;1.52;;
28166;SDS011;15455;53.376;-6.262;2023-07-13T02:24:16;9.02;;;1.65;;
28166;SDS011;15455;53.376;-6.262;2023-07-13T02:27:04;4.47;;;1.25;;
28166;SDS011;15455;53.376;-6.262;2023-07-13T02:29:50;7.82;;;1.95;;
28166;SDS011;15455;53.376;-6.262;2023-07-13T02:32:39;5.38;;;1.92;;
28166;SDS011;15455;53.376;-6.262;2023-07-13T02:35:25;6.13;;;2.33;;
28166;SDS011;15455;53.376;-6.262;2023-07-13T02:38:10;3.78;;;1.80;;
28166;SDS011;15455;53.376;-6.262;2023-07-13T02:40:56;7.53;;;1.45;;
28166;SDS011;15455;53.376;-6.262;2023-07-13T02:43:41;8.20;;;1.80;;
28166;SDS011;15455;53.376;-6.262;2023-07-13T02:46:26;7.93;;;1.90;;
28166;SDS011;15455;53.376;-6.262;2023-07-13T02:49:13;6.32;;;1.10;;
28166;SDS011;15455;53.376;-6.262;2023-07-13T02:51:59;7.30;;;1.83;;
28166;SDS011;15455;53.376;-6.262;2023-07-13T02:54:45;5.85;;;2.00;;
28166;SDS011;15455;53.376;-6.262;2023-07-13T02:57:30;7.32;;;1.60;;
28166;SDS011;15455;53.376;-6.262;2023-07-13T03:00:18;9.55;;;2.22;;
28166;SDS011;15455;53.376;-6.262;2023-07-13T03:03:04;8.25;;;1.67;;
28166;SDS011;15455;53.376;-6.262;2023-07-13T03:05:57;4.80;;;1.65;;
28166;SDS011;15455;53.376;-6.262;2023-07-13T03:08:48;8.95;;;1.67;;
28166;SDS011;15455;53.376;-6.262;2023-07-13T03:11:34;13.25;;;1.67;;
28166;SDS011;15455;53.376;-6.262;2023-07-13T03:14:31;7.90;;;1.92;;
28166;SDS011;15455;53.376;-6.262;2023-07-13T03:17:18;5.13;;;1.40;;
28166;SDS011;15455;53.376;-6.262;2023-07-13T03:20:05;6.68;;;1.65;;
28166;SDS011;15455;53.376;-6.262;2023-07-13T03:22:52;5.22;;;1.45;;
28166;SDS011;15455;53.376;-6.262;2023-07-13T03:25:38;8.07;;;1.85;;
28166;SDS011;15455;53.376;-6.262;2023-07-13T03:28:24;8.35;;;1.75;;
28166;SDS011;15455;53.376;-6.262;2023-07-13T03:31:11;6.80;;;1.55;;
28166;SDS011;15455;53.376;-6.262;2023-07-13T03:33:59;8.70;;;1.48;;
28166;SDS011;15455;53.376;-6.262;2023-07-13T03:36:46;6.28;;;1.90;;
28166;SDS011;15455;53.376;-6.262;2023-07-13T03:39:32;11.60;;;1.90;;
28166;SDS011;15455;53.376;-6.262;2023-07-13T03:42:18;6.95;;;1.80;;
28166;SDS011;15455;53.376;-6.262;2023-07-13T03:45:04;4.50;;;1.85;;
28166;SDS011;15455;53.376;-6.262;2023-07-13T03:47:51;1.65;;;1.20;;
28166;SDS011;15455;53.376;-6.262;2023-07-13T03:50:36;8.40;;;1.63;;
28166;SDS011;15455;53.376;-6.262;2023-07-13T03:53:21;5.00;;;1.70;;
28166;SDS011;15455;53.376;-6.262;2023-07-13T03:56:07;5.18;;;1.50;;
28166;SDS011;15455;53.376;-6.262;2023-07-13T03:58:54;5.53;;;1.42;;
28166;SDS011;15455;53.376;-6.262;2023-07-13T04:01:40;2.35;;;1.50;;
28166;SDS011;15455;53.376;-6.262;2023-07-13T04:04:26;6.93;;;2.20;;
28166;SDS011;15455;53.376;-6.262;2023-07-13T04:07:12;14.75;;;1.63;;
28166;SDS011;15455;53.376;-6.262;2023-07-13T04:09:57;4.78;;;1.77;;
28166;SDS011;15455;53.376;-6.262;2023-07-13T04:12:43;8.45;;;2.13;;
28166;SDS011;15455;53.376;-6.262;2023-07-13T04:15:29;2.42;;;1.38;;
28166;SDS011;15455;53.376;-6.262;2023-07-13T04:18:16;3.50;;;1.58;;
28166;SDS011;15455;53.376;-6.262;2023-07-13T04:21:01;7.20;;;1.73;;
28166;SDS011;15455;53.376;-6.262;2023-07-13T04:23:47;8.98;;;1.70;;
28166;SDS011;15455;53.376;-6.262;2023-07-13T04:26:33;9.40;;;1.77;;
28166;SDS011;15455;53.376;-6.262;2023-07-13T04:29:21;5.70;;;1.83;;
28166;SDS011;15455;53.376;-6.262;2023-07-13T04:32:07;5.03;;;1.92;;
28166;SDS011;15455;53.376;-6.262;2023-07-13T04:34:53;3.10;;;1.77;;
28166;SDS011;15455;53.376;-6.262;2023-07-13T04:37:40;6.57;;;1.83;;
28166;SDS011;15455;53.376;-6.262;2023-07-13T04:40:26;4.68;;;1.58;;
28166;SDS011;15455;53.376;-6.262;2023-07-13T04:43:12;4.13;;;1.60;;
28166;SDS011;15455;53.376;-6.262;2023-07-13T04:46:02;1.92;;;1.75;;
28166;SDS011;15455;53.376;-6.262;2023-07-13T04:48:57;9.25;;;1.58;;
28166;SDS011;15455;53.376;-6.262;2023-07-13T04:51:43;6.68;;;1.30;;
28166;SDS011;15455;53.376;-6.262;2023-07-13T04:54:28;7.78;;;1.77;;
28166;SDS011;15455;53.376;-6.262;2023-07-13T04:57:14;8.23;;;1.55;;
28166;SDS011;15455;53.376;-6.262;2023-07-13T04:59:59;16.05;;;2.35;;
28166;SDS011;15455;53.376;-6.262;2023-07-13T05:02:46;5.32;;;1.58;;
28166;SDS011;15455;53.376;-6.262;2023-07-13T05:05:32;4.35;;;1.98;;
28166;SDS011;15455;53.376;-6.262;2023-07-13T05:08:17;5.32;;;1.92;;
28166;SDS011;15455;53.376;-6.262;2023-07-13T05:11:03;8.57;;;1.92;;
28166;SDS011;15455;53.376;-6.262;2023-07-13T05:13:50;9.32;;;1.63;;
28166;SDS011;15455;53.376;-6.262;2023-07-13T05:16:35;6.75;;;1.70;;
28166;SDS011;15455;53.376;-6.262;2023-07-13T05:19:21;4.97;;;1.45;;
28166;SDS011;15455;53.376;-6.262;2023-07-13T05:22:06;10.52;;;2.25;;
28166;SDS011;15455;53.376;-6.262;2023-07-13T05:24:53;10.35;;;1.90;;
28166;SDS011;15455;53.376;-6.262;2023-07-13T05:27:38;12.07;;;2.35;;
28166;SDS011;15455;53.376;-6.262;2023-07-13T05:30:24;5.22;;;1.67;;
28166;SDS011;15455;53.376;-6.262;2023-07-13T05:33:09;10.35;;;2.20;;
28166;SDS011;15455;53.376;-6.262;2023-07-13T05:35:55;6.35;;;1.67;;
28166;SDS011;15455;53.376;-6.262;2023-07-13T05:38:41;9.07;;;1.40;;
28166;SDS011;15455;53.376;-6.262;2023-07-13T05:41:26;4.20;;;1.65;;
28166;SDS011;15455;53.376;-6.262;2023-07-13T05:44:11;7.68;;;1.67;;
28166;SDS011;15455;53.376;-6.262;2023-07-13T05:46:57;7.78;;;1.90;;
28166;SDS011;15455;53.376;-6.262;2023-07-13T05:49:42;3.88;;;1.35;;
28166;SDS011;15455;53.376;-6.262;2023-07-13T05:52:28;7.65;;;1.85;;
28166;SDS011;15455;53.376;-6.262;2023-07-13T05:55:14;11.25;;;2.25;;
28166;SDS011;15455;53.376;-6.262;2023-07-13T05:58:01;14.30;;;2.00;;
28166;SDS011;15455;53.376;-6.262;2023-07-13T06:00:47;8.30;;;1.40;;
28166;SDS011;15455;53.376;-6.262;2023-07-13T06:03:33;6.68;;;1.75;;
28166;SDS011;15455;53.376;-6.262;2023-07-13T06:06:19;5.68;;;1.88;;
28166;SDS011;15455;53.376;-6.262;2023-07-13T06:09:04;3.67;;;1.23;;
28166;SDS011;15455;53.376;-6.262;2023-07-13T06:11:50;4.20;;;1.38;;
28166;SDS011;15455;53.376;-6.262;2023-07-13T06:14:36;10.15;;;1.88;;
28166;SDS011;15455;53.376;-6.262;2023-07-13T06:17:21;2.20;;;1.20;;
28166;SDS011;15455;53.376;-6.262;2023-07-13T06:20:07;11.32;;;2.50;;
28166;SDS011;15455;53.376;-6.262;2023-07-13T06:22:53;7.75;;;1.63;;
28166;SDS011;15455;53.376;-6.262;2023-07-13T06:25:39;4.25;;;1.20;;
28166;SDS011;15455;53.376;-6.262;2023-07-13T06:28:25;5.20;;;1.55;;
28166;SDS011;15455;53.376;-6.262;2023-07-13T06:31:10;8.18;;;1.67;;
28166;SDS011;15455;53.376;-6.262;2023-07-13T06:33:58;9.85;;;1.42;;
28166;SDS011;15455;53.376;-6.262;2023-07-13T06:36:44;2.15;;;1.27;;
28166;SDS011;15455;53.376;-6.262;2023-07-13T06:39:29;6.60;;;1.60;;
28166;SDS011;15455;53.376;-6.262;2023-07-13T06:42:16;3.90;;;1.73;;
28166;SDS011;15455;53.376;-6.262;2023-07-13T06:45:01;8.65;;;1.52;;
28166;SDS011;15455;53.376;-6.262;2023-07-13T06:47:47;10.52;;;1.80;;
28166;SDS011;15455;53.376;-6.262;2023-07-13T06:50:33;4.55;;;1.55;;
28166;SDS011;15455;53.376;-6.262;2023-07-13T06:53:19;5.03;;;1.42;;
28166;SDS011;15455;53.376;-6.262;2023-07-13T06:56:05;5.65;;;1.42;;
28166;SDS011;15455;53.376;-6.262;2023-07-13T06:58:51;5.85;;;1.60;;
28166;SDS011;15455;53.376;-6.262;2023-07-13T07:01:36;7.00;;;1.52;;
28166;SDS011;15455;53.376;-6.262;2023-07-13T07:04:25;3.70;;;1.02;;
28166;SDS011;15455;53.376;-6.262;2023-07-13T07:07:11;13.38;;;1.30;;
28166;SDS011;15455;53.376;-6.262;2023-07-13T07:09:56;3.60;;;1.40;;
28166;SDS011;15455;53.376;-6.262;2023-07-13T07:12:42;7.60;;;1.50;;
28166;SDS011;15455;53.376;-6.262;2023-07-13T07:15:27;4.47;;;1.30;;
28166;SDS011;15455;53.376;-6.262;2023-07-13T07:18:13;4.00;;;1.30;;
28166;SDS011;15455;53.376;-6.262;2023-07-13T07:20:58;6.82;;;1.67;;
28166;SDS011;15455;53.376;-6.262;2023-07-13T07:23:43;6.60;;;1.50;;
28166;SDS011;15455;53.376;-6.262;2023-07-13T07:26:29;7.03;;;1.63;;
28166;SDS011;15455;53.376;-6.262;2023-07-13T07:29:35;4.70;;;1.63;;
28166;SDS011;15455;53.376;-6.262;2023-07-13T07:32:29;6.68;;;1.02;;
28166;SDS011;15455;53.376;-6.262;2023-07-13T07:35:35;5.35;;;1.40;;
28166;SDS011;15455;53.376;-6.262;2023-07-13T07:38:42;8.20;;;1.67;;
28166;SDS011;15455;53.376;-6.262;2023-07-13T07:41:28;6.82;;;1.98;;
28166;SDS011;15455;53.376;-6.262;2023-07-13T07:44:17;5.03;;;1.42;;
28166;SDS011;15455;53.376;-6.262;2023-07-13T07:47:02;3.00;;;0.90;;
28166;SDS011;15455;53.376;-6.262;2023-07-13T07:49:48;10.65;;;1.60;;
28166;SDS011;15455;53.376;-6.262;2023-07-13T07:52:34;1.80;;;0.90;;
28166;SDS011;15455;53.376;-6.262;2023-07-13T07:55:20;2.95;;;1.05;;
28166;SDS011;15455;53.376;-6.262;2023-07-13T07:58:10;3.55;;;0.98;;
28166;SDS011;15455;53.376;-6.262;2023-07-13T08:01:15;4.82;;;1.10;;
28166;SDS011;15455;53.376;-6.262;2023-07-13T08:04:04;3.28;;;1.33;;
28166;SDS011;15455;53.376;-6.262;2023-07-13T08:06:52;4.85;;;0.98;;
28166;SDS011;15455;53.376;-6.262;2023-07-13T08:09:37;2.40;;;0.75;;
28166;SDS011;15455;53.376;-6.262;2023-07-13T08:12:23;6.30;;;1.40;;
28166;SDS011;15455;53.376;-6.262;2023-07-13T08:15:12;3.88;;;1.88;;
28166;SDS011;15455;53.376;-6.262;2023-07-13T08:17:59;1.30;;;0.90;;
28166;SDS011;15455;53.376;-6.262;2023-07-13T08:20:45;2.17;;;0.93;;
28166;SDS011;15455;53.376;-6.262;2023-07-13T08:23:30;4.30;;;1.23;;
28166;SDS011;15455;53.376;-6.262;2023-07-13T08:26:18;1.02;;;0.75;;
28166;SDS011;15455;53.376;-6.262;2023-07-13T08:29:03;4.05;;;0.80;;
28166;SDS011;15455;53.376;-6.262;2023-07-13T08:31:49;4.22;;;0.93;;
28166;SDS011;15455;53.376;-6.262;2023-07-13T08:34:35;1.85;;;0.95;;
28166;SDS011;15455;53.376;-6.262;2023-07-13T08:37:21;1.90;;;1.10;;
28166;SDS011;15455;53.376;-6.262;2023-07-13T08:40:07;2.95;;;0.80;;
28166;SDS011;15455;53.376;-6.262;2023-07-13T08:42:56;1.05;;;0.70;;
28166;SDS011;15455;53.376;-6.262;2023-07-13T08:45:48;4.38;;;0.90;;
28166;SDS011;15455;53.376;-6.262;2023-07-13T08:48:40;2.65;;;0.82;;
28166;SDS011;15455;53.376;-6.262;2023-07-13T08:54:29;4.03;;;0.88;;
28166;SDS011;15455;53.376;-6.262;2023-07-13T08:57:20;2.50;;;1.08;;
28166;SDS011;15455;53.376;-6.262;2023-07-13T09:00:16;1.35;;;0.70;;
28166;SDS011;15455;53.376;-6.262;2023-07-13T09:03:02;1.40;;;0.93;;
28166;SDS011;15455;53.376;-6.262;2023-07-13T09:05:58;2.83;;;1.05;;
28166;SDS011;15455;53.376;-6.262;2023-07-13T09:17:27;4.40;;;1.37;;
28166;SDS011;15455;53.376;-6.262;2023-07-13T09:20:28;2.45;;;1.00;;
28166;SDS011;15455;53.376;-6.262;2023-07-13T09:23:16;5.22;;;1.10;;
28166;SDS011;15455;53.376;-6.262;2023-07-13T09:26:06;2.03;;;0.80;;
28166;SDS011;15455;53.376;-6.262;2023-07-13T09:28:59;2.80;;;1.40;;
28166;SDS011;15455;53.376;-6.262;2023-07-13T09:31:57;3.97;;;0.90;;
28166;SDS011;15455;53.376;-6.262;2023-07-13T09:34:52;3.65;;;1.23;;
28166;SDS011;15455;53.376;-6.262;2023-07-13T09:37:39;3.13;;;1.40;;
28166;SDS011;15455;53.376;-6.262;2023-07-13T09:40:36;1.98;;;0.93;;
28166;SDS011;15455;53.376;-6.262;2023-07-13T09:47:02;4.47;;;1.20;;
28166;SDS011;15455;53.376;-6.262;2023-07-13T09:49:55;1.88;;;1.25;;
28166;SDS011;15455;53.376;-6.262;2023-07-13T09:52:47;0.85;;;0.80;;
28166;SDS011;15455;53.376;-6.262;2023-07-13T09:55:36;1.38;;;1.00;;
28166;SDS011;15455;53.376;-6.262;2023-07-13T09:58:24;3.92;;;1.00;;
28166;SDS011;15455;53.376;-6.262;2023-07-13T10:01:14;2.67;;;1.13;;
28166;SDS011;15455;53.376;-6.262;2023-07-13T10:04:01;1.83;;;1.08;;
28166;SDS011;15455;53.376;-6.262;2023-07-13T10:06:46;3.38;;;1.30;;
28166;SDS011;15455;53.376;-6.262;2023-07-13T10:09:36;1.55;;;0.80;;
28166;SDS011;15455;53.376;-6.262;2023-07-13T10:12:23;1.05;;;0.85;;
28166;SDS011;15455;53.376;-6.262;2023-07-13T10:15:17;3.58;;;1.08;;
28166;SDS011;15455;53.376;-6.262;2023-07-13T10:18:09;1.88;;;1.17;;
28166;SDS011;15455;53.376;-6.262;2023-07-13T10:21:11;2.30;;;0.98;;
28166;SDS011;15455;53.376;-6.262;2023-07-13T10:24:18;4.05;;;0.90;;
28166;SDS011;15455;53.376;-6.262;2023-07-13T10:30:11;3.45;;;1.08;;
28166;SDS011;15455;53.376;-6.262;2023-07-13T10:33:02;1.20;;;0.63;;
28166;SDS011;15455;53.376;-6.262;2023-07-13T10:35:51;3.63;;;0.85;;
28166;SDS011;15455;53.376;-6.262;2023-07-13T10:38:47;1.20;;;0.85;;
28166;SDS011;15455;53.376;-6.262;2023-07-13T10:41:38;3.20;;;0.80;;
28166;SDS011;15455;53.376;-6.262;2023-07-13T10:44:28;5.25;;;0.73;;
28166;SDS011;15455;53.376;-6.262;2023-07-13T10:47:15;3.15;;;0.85;;
28166;SDS011;15455;53.376;-6.262;2023-07-13T10:50:03;3.60;;;0.75;;
28166;SDS011;15455;53.376;-6.262;2023-07-13T10:52:50;1.30;;;0.90;;
28166;SDS011;15455;53.376;-6.262;2023-07-13T10:55:40;1.23;;;0.93;;
28166;SDS011;15455;53.376;-6.262;2023-07-13T10:58:42;3.33;;;0.93;;
28166;SDS011;15455;53.376;-6.262;2023-07-13T11:01:38;4.03;;;1.00;;
28166;SDS011;15455;53.376;-6.262;2023-07-13T11:04:40;6.43;;;1.00;;
28166;SDS011;15455;53.376;-6.262;2023-07-13T11:07:27;1.80;;;1.00;;
28166;SDS011;15455;53.376;-6.262;2023-07-13T11:16:37;1.15;;;0.68;;
28166;SDS011;15455;53.376;-6.262;2023-07-13T11:19:37;3.85;;;1.15;;
28166;SDS011;15455;53.376;-6.262;2023-07-13T11:22:25;2.33;;;0.98;;
28166;SDS011;15455;53.376;-6.262;2023-07-13T11:25:30;1.48;;;0.80;;
28166;SDS011;15455;53.376;-6.262;2023-07-13T11:28:21;2.42;;;0.68;;
28166;SDS011;15455;53.376;-6.262;2023-07-13T11:31:13;1.25;;;0.75;;
28166;SDS011;15455;53.376;-6.262;2023-07-13T11:34:01;2.83;;;1.02;;
28166;SDS011;15455;53.376;-6.262;2023-07-13T11:36:47;2.10;;;1.20;;
28166;SDS011;15455;53.376;-6.262;2023-07-13T11:39:36;2.97;;;0.93;;
28166;SDS011;15455;53.376;-6.262;2023-07-13T11:42:31;3.78;;;0.98;;
28166;SDS011;15455;53.376;-6.262;2023-07-13T11:45:21;2.22;;;1.10;;
28166;SDS011;15455;53.376;-6.262;2023-07-13T11:48:20;3.30;;;1.55;;
28166;SDS011;15455;53.376;-6.262;2023-07-13T11:51:09;3.55;;;1.20;;
28166;SDS011;15455;53.376;-6.262;2023-07-13T11:54:23;3.72;;;1.50;;
28166;SDS011;15455;53.376;-6.262;2023-07-13T12:00:12;1.45;;;0.88;;
28166;SDS011;15455;53.376;-6.262;2023-07-13T12:03:00;2.58;;;1.33;;
28166;SDS011;15455;53.376;-6.262;2023-07-13T12:08:43;3.58;;;0.98;;
28166;SDS011;15455;53.376;-6.262;2023-07-13T12:11:29;2.13;;;1.30;;
28166;SDS011;15455;53.376;-6.262;2023-07-13T12:14:15;2.30;;;0.95;;
28166;SDS011;15455;53.376;-6.262;2023-07-13T12:17:03;1.23;;;0.90;;
28166;SDS011;15455;53.376;-6.262;2023-07-13T12:20:03;1.45;;;1.10;;
28166;SDS011;15455;53.376;-6.262;2023-07-13T12:23:25;2.28;;;1.20;;
28166;SDS011;15455;53.376;-6.262;2023-07-13T12:26:16;2.35;;;1.38;;
28166;SDS011;15455;53.376;-6.262;2023-07-13T12:29:04;3.75;;;1.17;;
28166;SDS011;15455;53.376;-6.262;2023-07-13T12:31:51;4.03;;;1.40;;
28166;SDS011;15455;53.376;-6.262;2023-07-13T12:34:49;2.70;;;1.30;;
28166;SDS011;15455;53.376;-6.262;2023-07-13T12:37:42;1.65;;;1.10;;
28166;SDS011;15455;53.376;-6.262;2023-07-13T12:40:32;4.68;;;1.40;;
28166;SDS011;15455;53.376;-6.262;2023-07-13T12:43:22;6.47;;;1.38;;
28166;SDS011;15455;53.376;-6.262;2023-07-13T12:46:18;2.58;;;1.00;;
28166;SDS011;15455;53.376;-6.262;2023-07-13T12:49:07;2.78;;;1.08;;
28166;SDS011;15455;53.376;-6.262;2023-07-13T12:52:03;2.88;;;1.23;;
28166;SDS011;15455;53.376;-6.262;2023-07-13T12:55:13;2.78;;;1.38;;
28166;SDS011;15455;53.376;-6.262;2023-07-13T12:58:03;2.85;;;1.00;;
28166;SDS011;15455;53.376;-6.262;2023-07-13T13:00:50;2.78;;;1.20;;
28166;SDS011;15455;53.376;-6.262;2023-07-13T13:06:27;2.83;;;1.30;;
28166;SDS011;15455;53.376;-6.262;2023-07-13T13:09:15;2.17;;;1.10;;
28166;SDS011;15455;53.376;-6.262;2023-07-13T13:12:03;1.77;;;0.80;;
28166;SDS011;15455;53.376;-6.262;2023-07-13T13:14:50;4.38;;;1.52;;
28166;SDS011;15455;53.376;-6.262;2023-07-13T13:17:38;2.95;;;1.38;;
28166;SDS011;15455;53.376;-6.262;2023-07-13T13:20:24;3.05;;;1.15;;
28166;SDS011;15455;53.376;-6.262;2023-07-13T13:23:14;2.05;;;1.40;;
28166;SDS011;15455;53.376;-6.262;2023-07-13T13:26:05;4.60;;;1.23;;
28166;SDS011;15455;53.376;-6.262;2023-07-13T13:28:55;1.48;;;0.98;;
28166;SDS011;15455;53.376;-6.262;2023-07-13T13:31:40;2.83;;;0.98;;
28166;SDS011;15455;53.376;-6.262;2023-07-13T13:34:26;2.30;;;1.35;;
28166;SDS011;15455;53.376;-6.262;2023-07-13T13:37:30;3.03;;;1.33;;
28166;SDS011;15455;53.376;-6.262;2023-07-13T13:40:21;2.25;;;1.00;;
28166;SDS011;15455;53.376;-6.262;2023-07-13T13:43:18;3.17;;;1.15;;
28166;SDS011;15455;53.376;-6.262;2023-07-13T13:46:15;2.20;;;1.15;;
28166;SDS011;15455;53.376;-6.262;2023-07-13T13:49:04;4.35;;;1.50;;
28166;SDS011;15455;53.376;-6.262;2023-07-13T13:51:50;6.07;;;1.35;;
28166;SDS011;15455;53.376;-6.262;2023-07-13T13:54:36;2.83;;;1.42;;
28166;SDS011;15455;53.376;-6.262;2023-07-13T13:57:23;2.08;;;1.27;;
28166;SDS011;15455;53.376;-6.262;2023-07-13T14:00:10;3.45;;;1.20;;
28166;SDS011;15455;53.376;-6.262;2023-07-13T14:03:00;3.08;;;0.90;;
28166;SDS011;15455;53.376;-6.262;2023-07-13T14:05:46;5.93;;;1.30;;
28166;SDS011;15455;53.376;-6.262;2023-07-13T14:08:33;4.05;;;1.00;;
28166;SDS011;15455;53.376;-6.262;2023-07-13T14:11:19;2.00;;;1.02;;
28166;SDS011;15455;53.376;-6.262;2023-07-13T14:14:05;3.90;;;1.60;;
28166;SDS011;15455;53.376;-6.262;2023-07-13T14:16:54;3.13;;;1.27;;
28166;SDS011;15455;53.376;-6.262;2023-07-13T14:19:40;1.42;;;1.10;;
28166;SDS011;15455;53.376;-6.262;2023-07-13T14:22:26;5.32;;;1.40;;
28166;SDS011;15455;53.376;-6.262;2023-07-13T14:25:13;6.28;;;1.15;;
28166;SDS011;15455;53.376;-6.262;2023-07-13T14:27:59;5.20;;;1.38;;
28166;SDS011;15455;53.376;-6.262;2023-07-13T14:30:49;2.90;;;1.30;;
28166;SDS011;15455;53.376;-6.262;2023-07-13T14:33:34;1.83;;;1.17;;
28166;SDS011;15455;53.376;-6.262;2023-07-13T14:36:27;5.40;;;1.58;;
28166;SDS011;15455;53.376;-6.262;2023-07-13T14:39:22;2.80;;;0.80;;
28166;SDS011;15455;53.376;-6.262;2023-07-13T14:42:09;3.72;;;1.10;;
28166;SDS011;15455;53.376;-6.262;2023-07-13T14:44:56;3.65;;;1.20;;
28166;SDS011;15455;53.376;-6.262;2023-07-13T14:47:41;4.65;;;1.30;;
28166;SDS011;15455;53.376;-6.262;2023-07-13T14:50:31;3.15;;;1.38;;
28166;SDS011;15455;53.376;-6.262;2023-07-13T14:53:17;2.97;;;1.48;;
28166;SDS011;15455;53.376;-6.262;2023-07-13T14:56:08;2.42;;;1.38;;
28166;SDS011;15455;53.376;-6.262;2023-07-13T14:58:56;1.48;;;1.05;;
28166;SDS011;15455;53.376;-6.262;2023-07-13T15:01:41;1.70;;;0.85;;
28166;SDS011;15455;53.376;-6.262;2023-07-13T15:04:26;4.15;;;1.58;;
28166;SDS011;15455;53.376;-6.262;2023-07-13T15:07:12;2.55;;;1.02;;
28166;SDS011;15455;53.376;-6.262;2023-07-13T15:10:01;1.83;;;0.80;;
28166;SDS011;15455;53.376;-6.262;2023-07-13T15:12:47;2.45;;;1.30;;
28166;SDS011;15455;53.376;-6.262;2023-07-13T15:15:33;1.33;;;0.82;;
28166;SDS011;15455;53.376;-6.262;2023-07-13T15:18:21;3.28;;;1.00;;
28166;SDS011;15455;53.376;-6.262;2023-07-13T15:21:13;1.77;;;1.17;;
28166;SDS011;15455;53.376;-6.262;2023-07-13T15:24:04;1.45;;;0.60;;
28166;SDS011;15455;53.376;-6.262;2023-07-13T15:26:53;1.50;;;0.75;;
28166;SDS011;15455;53.376;-6.262;2023-07-13T15:29:38;1.17;;;0.77;;
28166;SDS011;15455;53.376;-6.262;2023-07-13T15:32:28;1.40;;;0.90;;
28166;SDS011;15455;53.376;-6.262;2023-07-13T15:35:17;1.55;;;0.93;;
28166;SDS011;15455;53.376;-6.262;2023-07-13T15:38:15;2.55;;;0.95;;
28166;SDS011;15455;53.376;-6.262;2023-07-13T15:41:40;1.63;;;0.80;;
28166;SDS011;15455;53.376;-6.262;2023-07-13T15:44:23;2.35;;;0.80;;
28166;SDS011;15455;53.376;-6.262;2023-07-13T15:47:13;2.50;;;0.73;;
28166;SDS011;15455;53.376;-6.262;2023-07-13T15:49:59;2.97;;;0.80;;
28166;SDS011;15455;53.376;-6.262;2023-07-13T15:52:47;3.72;;;1.00;;
28166;SDS011;15455;53.376;-6.262;2023-07-13T15:55:38;2.55;;;1.05;;
28166;SDS011;15455;53.376;-6.262;2023-07-13T16:01:13;0.95;;;0.63;;
28166;SDS011;15455;53.376;-6.262;2023-07-13T16:03:59;5.25;;;1.42;;
28166;SDS011;15455;53.376;-6.262;2023-07-13T16:06:45;2.28;;;1.00;;
28166;SDS011;15455;53.376;-6.262;2023-07-13T16:09:32;1.58;;;0.80;;
28166;SDS011;15455;53.376;-6.262;2023-07-13T16:12:17;1.52;;;0.57;;
28166;SDS011;15455;53.376;-6.262;2023-07-13T16:15:03;1.42;;;0.60;;
28166;SDS011;15455;53.376;-6.262;2023-07-13T16:17:50;3.75;;;1.20;;
28166;SDS011;15455;53.376;-6.262;2023-07-13T16:20:37;1.35;;;1.00;;
28166;SDS011;15455;53.376;-6.262;2023-07-13T16:23:26;1.63;;;1.00;;
28166;SDS011;15455;53.376;-6.262;2023-07-13T16:26:33;1.40;;;0.88;;
28166;SDS011;15455;53.376;-6.262;2023-07-13T16:29:28;5.32;;;0.70;;
28166;SDS011;15455;53.376;-6.262;2023-07-13T16:32:15;2.00;;;0.80;;
28166;SDS011;15455;53.376;-6.262;2023-07-13T16:35:01;1.45;;;1.13;;
28166;SDS011;15455;53.376;-6.262;2023-07-13T16:37:46;1.40;;;0.80;;
28166;SDS011;15455;53.376;-6.262;2023-07-13T16:40:47;1.60;;;1.38;;
28166;SDS011;15455;53.376;-6.262;2023-07-13T16:43:33;1.92;;;1.23;;
28166;SDS011;15455;53.376;-6.262;2023-07-13T16:46:22;1.85;;;1.10;;
28166;SDS011;15455;53.376;-6.262;2023-07-13T16:49:25;1.23;;;0.95;;
28166;SDS011;15455;53.376;-6.262;2023-07-13T16:52:15;2.65;;;0.95;;
28166;SDS011;15455;53.376;-6.262;2023-07-13T16:55:08;1.00;;;0.73;;
28166;SDS011;15455;53.376;-6.262;2023-07-13T16:57:56;1.15;;;1.05;;
28166;SDS011;15455;53.376;-6.262;2023-07-13T17:00:48;1.10;;;0.95;;
28166;SDS011;15455;53.376;-6.262;2023-07-13T17:03:37;5.32;;;1.13;;
28166;SDS011;15455;53.376;-6.262;2023-07-13T17:06:24;2.30;;;0.85;;
28166;SDS011;15455;53.376;-6.262;2023-07-13T17:09:10;1.30;;;0.90;;
28166;SDS011;15455;53.376;-6.262;2023-07-13T17:11:58;3.25;;;0.85;;
28166;SDS011;15455;53.376;-6.262;2023-07-13T17:14:45;1.83;;;1.02;;
28166;SDS011;15455;53.376;-6.262;2023-07-13T17:17:33;2.08;;;0.70;;